Startpagina
METAR-TAF:

METAR-TAF

Vliegvelden :

Melbourne Airport

Melbourne, Australië

breedte: 37-40-24S, lengte: 144-50-36E, hoogte: 132 m

Actueel weer

Dit bericht is 27 minuten geleden gemaakt, om 14:00 UTC
Wind 5 kt uit het noordnoordwesten
Temperatuur 12°C
Vochtigheid 67%
Druk 1008 hPa
Zicht 10 km of meer
geen wolken onder 1500 m en geen cumulonimbus

METAR: YMML 231400Z 33005KT CAVOK 12/06 Q1008

Tijdstip: 01:27 (14:27 UTC)

Verwachting

Dit bericht is 3 uur en het 23 minuten geleden gemaakt, om 11:04 UTC
Verwachting geldig van 23 om 12 UTC tot 24 om 18 UTC
Wind 10 kt uit het noordnoordwesten
Zicht 10 km of meer
geen wolken onder 1500 m en geen cumulonimbus
Van 24 om 0000 UTC
Wind 12 kt uit het westen
Zicht 10 km of meer
Verspreide wolken op 5000 ft
Van 24 om 0900 UTC
Wind 8 kt uit het noordnoordwesten
Zicht 10 km of meer
Weinig wolken op 4000 ft

TAF: YMML 231104Z 2312/2418 34010KT CAVOK FM240000 27012KT 9999 SCT050 FM240900 33008KT 9999 FEW040

Waarnemingen en weersverwachtingen van meer dan 4000 vliegvelden (METAR en TAF).

De beschikbare stations zijn de gele en rode punten op de kaart.

Ga met uw muis naar het station om de naam te zien.

Klik dan om waarnemingen en weersverwachtingen te zien.

kaart wijzigen: klik op de groene knoppen met een zwart kruis om in te zoomen, op de groene knop met een streepje om uit te zoomen of op de groene pijlen voor aangrenzende kaarten.


METAR-TAF: